Time;durP1;ratioP1;P1;durP2;ratioP2;P2;SDS_P1;SDS_P2;PMS_P1;PMS_P2;Temp;Humidity;BMP_temperature;BMP_pressure;BME280_temperature;BME280_humidity;BME280_pressure;Samples;Min_cycle;Max_cycle;Signal;HPM_P1;HPM_P2
2023/04/01 00:01:27;;;;;;;;;14.20;14.20;;;;;15.56;38.03;98147.38;5090375;28;8859;-79
2023/04/01 00:03:56;;;;;;;;;12.60;12.00;;;;;15.46;38.02;98149.78;5090045;28;8856;-77
2023/04/01 00:06:25;;;;;;;;;10.20;9.20;;;;;15.38;38.13;98150.25;5090914;28;8867;-75
2023/04/01 00:08:54;;;;;;;;;11.80;10.40;;;;;15.38;38.21;98157.38;5089835;28;8844;-76
2023/04/01 00:11:26;;;;;;;;;10.60;10.60;;;;;15.31;38.48;98174.56;5054895;28;8909;-76
2023/04/01 00:13:55;;;;;;;;;10.20;9.40;;;;;15.45;38.09;98175.41;5080624;28;8830;-75
2023/04/01 00:16:24;;;;;;;;;13.40;13.40;;;;;15.50;38.16;98176.91;5068794;28;9642;-75
2023/04/01 00:18:53;;;;;;;;;10.00;10.00;;;;;15.44;38.08;98183.44;5051062;28;8881;-76
2023/04/01 00:21:22;;;;;;;;;9.20;9.00;;;;;15.45;38.07;98177.19;5070526;28;8873;-76
2023/04/01 00:23:52;;;;;;;;;12.80;12.20;;;;;15.53;37.70;98174.94;5037132;28;8858;-76
2023/04/01 00:26:21;;;;;;;;;8.20;7.00;;;;;15.50;37.85;98179.56;5089205;28;8874;-75
2023/04/01 00:28:52;;;;;;;;;8.60;7.60;;;;;15.24;38.58;98174.09;5068214;28;8862;-75
2023/04/01 00:31:21;;;;;;;;;8.20;8.20;;;;;15.39;38.30;98177.59;5069742;28;8835;-74
2023/04/01 00:33:52;;;;;;;;;8.40;7.80;;;;;15.34;38.72;98174.38;5082849;28;8860;-74
2023/04/01 00:36:22;;;;;;;;;7.20;7.20;;;;;15.23;38.74;98167.97;5087857;28;8847;-76
2023/04/01 00:38:52;;;;;;;;;6.00;6.00;;;;;15.02;39.48;98159.56;5075665;28;8860;-75
2023/04/01 00:41:21;;;;;;;;;6.80;6.20;;;;;14.85;39.85;98159.75;5075616;28;10147;-75
2023/04/01 00:43:53;;;;;;;;;8.40;8.40;;;;;14.85;40.00;98142.06;5087403;28;8828;-75
2023/04/01 00:46:21;;;;;;;;;8.80;6.60;;;;;14.94;40.04;98145.09;5032817;28;8858;-75
2023/04/01 00:48:54;;;;;;;;;6.20;6.20;;;;;14.96;40.11;98135.25;5103158;28;8855;-76
2023/04/01 00:51:28;;;;;;;;;11.40;11.40;;;;;15.03;40.04;98137.41;5078563;28;8889;-74
2023/04/01 00:54:01;;;;;;;;;8.60;8.20;;;;;15.12;39.82;98129.88;5067707;28;8864;-76
2023/04/01 00:56:33;;;;;;;;;9.80;7.00;;;;;15.13;39.96;98126.25;5094976;28;8884;-75
2023/04/01 00:59:08;;;;;;;;;11.20;9.20;;;;;15.17;40.00;98118.06;5102210;28;8848;-76
2023/04/01 01:01:37;;;;;;;;;9.00;9.00;;;;;15.20;39.69;98109.06;5075195;28;8835;-75
2023/04/01 01:04:06;;;;;;;;;7.60;7.60;;;;;15.17;39.74;98110.13;5081102;28;8846;-75
2023/04/01 01:06:47;;;;;;;;;10.20;8.60;;;;;15.01;40.09;98109.38;5111511;27;8944;-76
2023/04/01 01:09:45;;;;;;;;;9.40;8.40;;;;;15.04;39.93;98115.31;5095205;28;8925;-76
2023/04/01 01:12:18;;;;;;;;;10.60;10.60;;;;;14.98;40.15;98115.72;5091036;28;8868;-75
2023/04/01 01:14:56;;;;;;;;;7.00;7.00;;;;;15.09;40.08;98119.47;5033952;28;8974;-76
2023/04/01 01:17:36;;;;;;;;;8.20;8.00;;;;;15.03;40.35;98118.91;5075808;28;8871;-75
2023/04/01 01:20:21;;;;;;;;;8.00;8.00;;;;;14.96;40.69;98114.97;5086207;28;8849;-76
2023/04/01 01:23:24;;;;;;;;;8.40;7.20;;;;;14.78;41.26;98114.28;5086114;28;8852;-76
2023/04/01 01:26:12;;;;;;;;;10.20;10.20;;;;;14.76;41.23;98112.69;5074058;28;8947;-75
2023/04/01 01:28:51;;;;;;;;;8.80;5.40;;;;;14.67;41.29;98100.81;5084617;28;8835;-75
2023/04/01 01:31:30;;;;;;;;;8.00;8.00;;;;;14.78;41.17;98103.69;5088606;28;8928;-76
2023/04/01 01:34:12;;;;;;;;;10.40;9.80;;;;;14.74;41.46;98110.13;5083566;28;8872;-76
2023/04/01 01:36:46;;;;;;;;;9.20;8.00;;;;;14.70;41.59;98102.41;5081230;28;9698;-76
2023/04/01 01:39:16;;;;;;;;;11.20;9.20;;;;;14.73;41.51;98104.91;5091743;28;8978;-77
2023/04/01 01:41:49;;;;;;;;;7.80;7.00;;;;;14.73;41.71;98110.22;5095889;28;8847;-77
2023/04/01 01:44:19;;;;;;;;;8.00;8.00;;;;;14.76;41.57;98105.59;5091438;28;8840;-76
2023/04/01 01:46:49;;;;;;;;;8.60;8.60;;;;;14.81;41.34;98114.09;5073271;28;8889;-75
2023/04/01 01:49:19;;;;;;;;;7.00;6.00;;;;;14.75;41.60;98111.81;5058323;28;8893;-75
2023/04/01 01:51:50;;;;;;;;;9.20;7.40;;;;;14.75;41.46;98103.88;5088082;28;8843;-75
2023/04/01 01:54:19;;;;;;;;;8.60;7.40;;;;;14.77;41.36;98102.00;5077945;28;8836;-75
2023/04/01 01:56:54;;;;;;;;;6.00;6.00;;;;;14.85;41.16;98089.16;5027436;28;8857;-76
2023/04/01 01:59:26;;;;;;;;;7.80;6.80;;;;;14.79;41.31;98086.03;5081954;28;9006;-75
2023/04/01 02:01:58;;;;;;;;;10.80;9.80;;;;;14.58;41.69;98083.72;5119453;27;8845;-76
2023/04/01 02:04:28;;;;;;;;;9.80;7.00;;;;;14.58;41.61;98091.66;5087794;28;8835;-76
2023/04/01 02:07:03;;;;;;;;;9.80;8.20;;;;;14.44;42.54;98096.94;5088388;28;8852;-75
2023/04/01 02:09:34;;;;;;;;;9.20;9.20;;;;;14.33;42.85;98100.22;5068278;28;8961;-75
2023/04/01 02:12:07;;;;;;;;;11.40;10.60;;;;;14.34;43.05;98101.06;5097480;28;9104;-77
2023/04/01 02:14:47;;;;;;;;;9.80;9.80;;;;;14.47;42.80;98116.13;5086497;28;8860;-75
2023/04/01 02:17:19;;;;;;;;;10.20;10.20;;;;;14.53;42.65;98124.59;5073674;28;8843;-74
2023/04/01 02:19:52;;;;;;;;;10.00;10.00;;;;;14.55;42.68;98115.66;5085351;28;9643;-75
2023/04/01 02:22:27;;;;;;;;;12.00;11.40;;;;;14.45;42.88;98120.66;5086785;28;8932;-75
2023/04/01 02:24:59;;;;;;;;;9.60;9.60;;;;;14.53;42.49;98119.31;5103363;28;8874;-76
2023/04/01 02:27:29;;;;;;;;;9.20;8.40;;;;;14.43;42.89;98113.72;5084302;28;8864;-76
2023/04/01 02:29:58;;;;;;;;;11.20;10.80;;;;;14.50;42.76;98107.13;5086125;28;8883;-76
2023/04/01 02:32:29;;;;;;;;;10.40;9.00;;;;;14.22;44.00;98100.84;5087445;28;8839;-76
2023/04/01 02:34:59;;;;;;;;;10.20;9.60;;;;;14.18;44.13;98099.31;5085720;28;9621;-76
2023/04/01 02:37:30;;;;;;;;;12.80;12.20;;;;;14.09;44.46;98103.38;5120572;27;8894;-76
2023/04/01 02:40:02;;;;;;;;;10.60;10.40;;;;;14.04;44.87;98102.78;5088049;28;8844;-77
2023/04/01 02:42:31;;;;;;;;;9.80;9.80;;;;;14.09;44.95;98102.50;5068482;28;8870;-76
2023/04/01 02:45:00;;;;;;;;;11.20;9.40;;;;;14.11;45.56;98100.66;5068251;28;8854;-75
2023/04/01 02:47:29;;;;;;;;;10.20;10.20;;;;;14.02;45.78;98106.47;5032276;28;8853;-77
2023/04/01 02:49:58;;;;;;;;;12.40;11.40;;;;;13.84;46.38;98111.84;5038452;28;9649;-76
2023/04/01 02:52:28;;;;;;;;;12.80;12.80;;;;;13.87;46.46;98114.31;5101503;28;9607;-76
2023/04/01 02:54:59;;;;;;;;;12.20;12.00;;;;;13.98;46.51;98107.56;5083754;28;8858;-76
2023/04/01 02:57:29;;;;;;;;;10.40;10.40;;;;;14.02;46.91;98104.66;5100154;28;8843;-76
2023/04/01 02:59:58;;;;;;;;;12.00;10.00;;;;;14.07;47.01;98107.91;5067854;28;8870;-76
2023/04/01 03:02:27;;;;;;;;;12.80;12.80;;;;;14.08;47.30;98109.59;5045366;28;8858;-77
2023/04/01 03:04:56;;;;;;;;;13.40;13.40;;;;;14.12;47.26;98104.13;5028855;28;8977;-77
2023/04/01 03:07:25;;;;;;;;;14.60;12.60;;;;;14.18;47.64;98109.91;5054181;28;8855;-75
2023/04/01 03:09:53;;;;;;;;;12.00;12.00;;;;;14.11;48.19;98102.41;5037183;28;8918;-74
2023/04/01 03:12:24;;;;;;;;;11.60;11.40;;;;;14.11;48.51;98113.00;5045464;28;8828;-75
2023/04/01 03:14:53;;;;;;;;;16.20;14.60;;;;;14.12;48.37;98106.78;5045572;28;8999;-76
2023/04/01 03:17:22;;;;;;;;;10.60;10.60;;;;;14.06;48.82;98102.69;5045464;28;8848;-75
2023/04/01 03:19:51;;;;;;;;;16.00;15.60;;;;;14.07;49.00;98094.69;5028553;28;9040;-75
2023/04/01 03:22:20;;;;;;;;;13.60;12.80;;;;;14.08;49.68;98091.09;5026823;28;8838;-76
2023/04/01 03:24:49;;;;;;;;;13.00;13.00;;;;;14.09;50.24;98091.94;5011863;28;8839;-74
2023/04/01 03:27:18;;;;;;;;;14.00;12.20;;;;;14.08;50.33;98106.09;5011371;28;8860;-75
2023/04/01 03:29:48;;;;;;;;;19.40;18.00;;;;;14.09;49.94;98099.88;5060137;28;8961;-76
2023/04/01 03:32:17;;;;;;;;;16.80;15.20;;;;;14.04;50.16;98097.50;5062983;28;8940;-75
2023/04/01 03:34:46;;;;;;;;;13.40;12.80;;;;;13.98;50.35;98094.34;5044739;28;8906;-76
2023/04/01 03:37:15;;;;;;;;;14.20;13.00;;;;;13.91;50.54;98093.88;5011644;28;8885;-75
2023/04/01 03:39:44;;;;;;;;;12.20;12.20;;;;;13.90;50.69;98092.16;5059218;28;8855;-75
2023/04/01 03:42:13;;;;;;;;;15.80;13.00;;;;;13.87;50.46;98087.06;5087789;28;8842;-73
2023/04/01 03:44:41;;;;;;;;;29.25;28.25;;;;;13.89;50.56;98083.38;5070442;28;8973;-70
2023/04/01 03:47:13;;;;;;;;;58.50;48.25;;;;;13.88;50.39;98081.72;5069678;28;8869;-76
2023/04/01 03:49:42;;;;;;;;;36.25;33.50;;;;;13.84;50.72;98080.16;5051153;28;8854;-72
2023/04/01 03:52:11;;;;;;;;;20.80;19.00;;;;;13.87;50.49;98081.78;5083253;28;8857;-73
2023/04/01 03:54:40;;;;;;;;;15.20;14.60;;;;;13.81;50.69;98079.47;5083628;28;8870;-70
2023/04/01 03:57:09;;;;;;;;;13.80;13.40;;;;;13.83;50.66;98085.56;5078045;28;8892;-72
2023/04/01 03:59:38;;;;;;;;;13.40;12.80;;;;;13.80;50.73;98085.69;5063084;28;8902;-70
2023/04/01 04:02:07;;;;;;;;;17.60;16.40;;;;;13.80;50.94;98080.41;5062004;28;8860;-72
2023/04/01 04:04:38;;;;;;;;;15.60;14.60;;;;;13.81;51.08;98077.72;5061268;28;8876;-70
2023/04/01 04:07:07;;;;;;;;;20.40;20.40;;;;;13.70;51.55;98082.72;5067819;28;8874;-72
2023/04/01 04:09:56;;;;;;;;;21.40;20.00;;;;;13.73;51.36;98079.88;5069301;28;10407;-70
2023/04/01 04:12:25;;;;;;;;;13.40;11.80;;;;;13.78;51.32;98077.00;5073063;28;8944;-71
2023/04/01 04:14:55;;;;;;;;;12.40;12.40;;;;;13.72;51.30;98091.41;5076934;28;8844;-70
2023/04/01 04:17:24;;;;;;;;;16.20;15.20;;;;;13.72;51.05;98082.66;5054163;28;8852;-71
2023/04/01 04:19:54;;;;;;;;;28.00;27.25;;;;;13.76;50.85;98071.81;5087903;28;8932;-71
2023/04/01 04:22:23;;;;;;;;;18.20;17.80;;;;;13.54;52.13;98064.25;5072349;28;9651;-71
2023/04/01 04:24:52;;;;;;;;;19.40;17.60;;;;;13.49;51.64;98059.25;5096300;28;8855;-70
2023/04/01 04:27:21;;;;;;;;;19.80;19.60;;;;;13.47;52.12;98044.44;5088152;28;8862;-76
2023/04/01 04:30:01;;;;;;;;;11.00;11.00;;;;;13.33;52.32;98044.38;5094075;28;8940;-75
2023/04/01 04:32:31;;;;;;;;;10.80;10.80;;;;;13.37;52.17;98032.69;5064204;28;8858;-74
2023/04/01 04:35:01;;;;;;;;;10.60;9.60;;;;;13.32;52.16;98035.59;5074699;28;8880;-77
2023/04/01 04:37:31;;;;;;;;;11.40;10.20;;;;;13.27;51.79;98021.81;5084786;28;8905;-74
2023/04/01 04:40:00;;;;;;;;;18.40;16.60;;;;;13.26;52.62;98023.59;5071836;28;8951;-74
2023/04/01 04:42:31;;;;;;;;;13.00;12.00;;;;;13.11;53.58;98012.13;5086612;28;8843;-74
2023/04/01 04:45:07;;;;;;;;;11.80;11.20;;;;;13.13;53.51;97998.84;5087385;28;8852;-74
2023/04/01 04:47:37;;;;;;;;;10.40;10.40;;;;;12.82;53.90;97997.88;5099260;28;8844;-76
2023/04/01 04:50:09;;;;;;;;;11.80;11.80;;;;;12.86;53.97;97995.94;5080543;28;8843;-76
2023/04/01 04:52:41;;;;;;;;;10.60;10.60;;;;;12.87;53.91;98001.13;5042548;28;8859;-75
2023/04/01 04:55:09;;;;;;;;;19.00;17.60;;;;;12.85;54.49;98000.38;5076946;28;8864;-74
2023/04/01 04:57:40;;;;;;;;;16.80;16.80;;;;;12.66;54.74;98007.56;5085041;28;8862;-74
2023/04/01 05:00:10;;;;;;;;;15.40;14.20;;;;;12.77;54.62;98021.03;5081845;28;8890;-74
2023/04/01 05:03:01;;;;;;;;;17.60;16.20;;;;;12.76;54.53;98014.03;5034529;28;8822;-76
2023/04/01 05:05:32;;;;;;;;;17.60;16.60;;;;;13.01;54.58;98017.97;5028295;28;8858;-74
2023/04/01 05:08:02;;;;;;;;;22.60;19.80;;;;;13.12;54.29;98012.97;5024697;28;9692;-74
2023/04/01 05:10:31;;;;;;;;;19.40;16.80;;;;;13.10;54.46;98013.03;5002618;28;8866;-78
2023/04/01 05:13:01;;;;;;;;;18.80;17.20;;;;;13.14;54.45;98016.38;4990632;28;9680;-74
2023/04/01 05:15:29;;;;;;;;;16.40;16.40;;;;;13.08;54.45;98000.88;5027692;28;9059;-75
2023/04/01 05:17:59;;;;;;;;;21.80;19.00;;;;;13.08;54.51;97985.91;4993678;28;9657;-74
2023/04/01 05:20:28;;;;;;;;;20.80;18.40;;;;;12.99;55.17;97981.13;5026544;28;8881;-74
2023/04/01 05:22:58;;;;;;;;;18.60;18.40;;;;;12.97;55.11;97996.19;5014755;28;8838;-70
2023/04/01 05:25:27;;;;;;;;;17.20;16.40;;;;;13.06;54.89;97992.22;5001000;28;8856;-77
2023/04/01 05:27:56;;;;;;;;;23.60;21.40;;;;;13.15;54.36;97983.78;5032028;28;8973;-75
2023/04/01 05:30:25;;;;;;;;;18.00;16.80;;;;;12.83;55.16;97975.84;5028972;28;8919;-75
2023/04/01 05:33:12;;;;;;;;;17.20;16.60;;;;;12.62;56.01;97958.59;5025159;28;9058;-77
2023/04/01 05:35:41;;;;;;;;;23.00;20.00;;;;;12.58;56.44;97942.09;5008656;28;8856;-71
2023/04/01 05:38:12;;;;;;;;;18.60;18.60;;;;;12.57;56.82;97934.25;5027900;28;8939;-73
2023/04/01 05:40:41;;;;;;;;;21.00;17.60;;;;;12.70;56.67;97951.09;5065885;28;8940;-74
2023/04/01 05:43:11;;;;;;;;;16.40;14.20;;;;;12.83;55.83;97949.47;5106346;28;8851;-78
2023/04/01 05:45:40;;;;;;;;;18.20;16.80;;;;;12.70;56.15;97951.09;5111506;28;8929;-83
2023/04/01 05:48:15;;;;;;;;;19.60;17.40;;;;;12.56;56.54;97956.25;5080820;28;8844;-83
2023/04/01 05:50:45;;;;;;;;;16.60;15.20;;;;;12.56;56.06;97956.25;5093956;28;9597;-82
2023/04/01 05:53:16;;;;;;;;;16.00;16.00;;;;;12.57;56.29;97960.63;5072843;28;9632;-85
2023/04/01 05:55:46;;;;;;;;;19.20;18.00;;;;;12.29;57.17;97938.38;5020633;28;8863;-83
2023/04/01 05:58:15;;;;;;;;;20.80;19.80;;;;;12.14;58.20;97922.47;5087779;28;8851;-82
2023/04/01 06:00:47;;;;;;;;;25.00;21.40;;;;;12.13;58.76;97941.00;5087601;28;9660;-82
2023/04/01 06:03:30;;;;;;;;;23.20;21.20;;;;;12.20;57.92;97952.91;5088870;28;8851;-83
2023/04/01 06:06:00;;;;;;;;;18.20;18.20;;;;;12.29;58.27;97968.22;5088720;28;8866;-79
2023/04/01 06:08:32;;;;;;;;;25.80;25.00;;;;;12.53;57.26;97967.84;5087353;28;8848;-84
2023/04/01 06:11:20;;;;;;;;;24.80;22.20;;;;;12.69;56.62;97959.94;5099240;28;8898;-82
2023/04/01 06:14:17;;;;;;;;;24.20;20.80;;;;;12.71;56.40;97947.50;5052405;28;8922;-81
2023/04/01 06:17:03;;;;;;;;;23.00;21.80;;;;;12.65;56.96;97932.88;5090272;28;8858;-80
2023/04/01 06:19:41;;;;;;;;;25.40;22.40;;;;;12.74;56.79;97915.72;5075888;28;8980;-81
2023/04/01 06:22:45;;;;;;;;;25.80;24.20;;;;;12.42;58.42;97910.44;5090976;28;8863;-80
2023/04/01 06:25:31;;;;;;;;;23.60;18.60;;;;;12.49;58.16;97903.06;5030120;28;9000;-81
2023/04/01 06:28:32;;;;;;;;;19.20;18.20;;;;;12.29;59.07;97897.06;5052740;28;8970;-82
2023/04/01 06:31:07;;;;;;;;;18.40;18.40;;;;;12.19;59.71;97893.25;5062805;28;8866;-81
2023/04/01 06:33:53;;;;;;;;;19.00;18.60;;;;;12.11;60.00;97890.19;5038657;28;8895;-84
2023/04/01 06:37:10;;;;;;;;;19.80;19.20;;;;;12.11;59.76;97891.03;5045445;28;8855;-82
2023/04/01 06:39:51;;;;;;;;;26.80;23.20;;;;;11.93;60.20;97884.94;5055462;28;8855;-79
2023/04/01 06:42:37;;;;;;;;;23.80;22.80;;;;;11.91;60.70;97891.25;5027845;28;8858;-79
2023/04/01 06:45:29;;;;;;;;;22.40;21.60;;;;;11.84;60.82;97890.72;5015643;28;8873;-80
2023/04/01 06:48:35;;;;;;;;;24.80;20.60;;;;;11.91;60.94;97888.59;5012646;28;8872;-80
2023/04/01 06:51:47;;;;;;;;;21.40;20.60;;;;;11.97;60.72;97892.69;4954130;28;8864;-77
2023/04/01 06:55:01;;;;;;;;;24.00;23.80;;;;;11.99;60.36;97894.31;4900586;29;8874;-76
2023/04/01 06:57:53;;;;;;;;;27.40;24.60;;;;;11.94;60.57;97891.94;4920648;29;8889;-80
2023/04/01 07:00:28;;;;;;;;;26.40;24.80;;;;;11.92;60.86;97878.00;4917103;29;8873;-78
2023/04/01 07:03:07;;;;;;;;;16.60;16.60;;;;;11.81;61.38;97890.00;4914559;29;8867;-82
2023/04/01 07:05:37;;;;;;;;;22.00;20.20;;;;;11.74;61.32;97892.94;4916983;29;8882;-80
2023/04/01 07:08:11;;;;;;;;;17.40;17.40;;;;;11.85;61.11;97889.78;4951410;29;8905;-80
2023/04/01 07:10:47;;;;;;;;;20.20;16.60;;;;;12.11;60.47;97893.66;4935588;29;8883;-80
2023/04/01 07:13:40;;;;;;;;;17.80;16.20;;;;;11.67;61.83;97890.69;4960316;28;8873;-80
2023/04/01 07:16:20;;;;;;;;;16.60;16.60;;;;;11.86;61.20;97870.44;4953108;28;8959;-81
2023/04/01 07:18:54;;;;;;;;;17.40;17.20;;;;;11.53;63.13;97849.31;4969740;28;8887;-79
2023/04/01 07:21:32;;;;;;;;;21.00;18.60;;;;;11.64;62.97;97846.13;4968102;28;8868;-80
2023/04/01 07:24:07;;;;;;;;;18.80;18.80;;;;;11.82;62.44;97850.44;4936926;28;8955;-79
2023/04/01 07:26:43;;;;;;;;;24.80;22.60;;;;;11.86;62.11;97848.50;4975117;28;8880;-79
2023/04/01 07:29:20;;;;;;;;;25.00;24.60;;;;;11.89;61.77;97845.72;5053549;28;9000;-79
2023/04/01 07:32:22;;;;;;;;;25.80;24.00;;;;;12.02;61.54;97836.22;5110836;28;8867;-80
2023/04/01 07:35:11;;;;;;;;;23.40;22.40;;;;;11.90;61.95;97842.13;5079494;28;8888;-81
2023/04/01 07:37:49;;;;;;;;;17.20;17.20;;;;;11.44;63.38;97850.63;5088610;28;8854;-80
2023/04/01 07:40:30;;;;;;;;;24.40;24.40;;;;;11.84;62.89;97848.59;5107985;28;8859;-81
2023/04/01 07:43:26;;;;;;;;;24.80;23.20;;;;;12.11;62.55;97848.03;5075159;28;8860;-79
2023/04/01 07:46:19;;;;;;;;;24.40;20.40;;;;;12.28;61.25;97847.13;5098964;28;8981;-80
2023/04/01 07:48:55;;;;;;;;;21.60;21.20;;;;;12.14;61.59;97858.38;5089319;28;8877;-77
2023/04/01 07:51:30;;;;;;;;;21.60;19.00;;;;;12.00;62.00;97843.34;5072642;28;8951;-79
2023/04/01 07:54:09;;;;;;;;;19.60;18.00;;;;;11.95;61.73;97834.84;5045907;28;8973;-79
2023/04/01 07:56:46;;;;;;;;;20.40;18.20;;;;;11.94;61.94;97846.31;5037348;28;8872;-81
2023/04/01 07:59:32;;;;;;;;;19.40;16.60;;;;;12.03;61.53;97844.94;5029309;28;8893;-79
2023/04/01 08:02:22;;;;;;;;;19.80;18.00;;;;;11.99;61.18;97838.16;5048640;28;8972;-79
2023/04/01 08:05:03;;;;;;;;;15.60;15.60;;;;;11.63;61.97;97832.09;5060666;28;8980;-81
2023/04/01 08:07:45;;;;;;;;;19.00;18.20;;;;;11.98;61.51;97834.69;5065272;28;8866;-80
2023/04/01 08:10:40;;;;;;;;;18.80;18.80;;;;;11.92;61.32;97833.22;5047815;28;8850;-72
2023/04/01 08:13:45;;;;;;;;;14.80;14.80;;;;;11.93;61.23;97837.53;4992844;28;8880;-79
2023/04/01 08:16:39;;;;;;;;;16.00;16.00;;;;;12.00;60.52;97842.50;4911295;28;8864;-81
2023/04/01 08:19:27;;;;;;;;;11.80;11.80;;;;;12.18;60.70;97846.75;4972877;28;8873;-82
2023/04/01 08:22:04;;;;;;;;;17.40;15.60;;;;;12.03;60.80;97851.09;4933783;28;9720;-78
2023/04/01 08:24:39;;;;;;;;;21.60;21.60;;;;;12.19;60.92;97859.00;4965616;28;9704;-79
2023/04/01 08:27:27;;;;;;;;;17.60;17.60;;;;;12.06;61.19;97855.34;4949891;28;8848;-81
2023/04/01 08:30:00;;;;;;;;;13.60;12.20;;;;;11.92;61.96;97850.81;4917448;28;8879;-79
2023/04/01 08:32:37;;;;;;;;;18.20;18.20;;;;;11.92;61.90;97842.94;4965294;28;8906;-81
2023/04/01 08:35:18;;;;;;;;;17.80;16.60;;;;;12.01;62.08;97834.50;4979924;28;8883;-78
2023/04/01 08:37:49;;;;;;;;;19.60;17.80;;;;;12.07;61.95;97807.84;4965632;28;8912;-78
2023/04/01 08:40:51;;;;;;;;;21.80;18.00;;;;;12.00;62.46;97824.06;4965522;28;8873;-79
2023/04/01 08:43:36;;;;;;;;;17.20;17.20;;;;;11.88;62.99;97817.66;4934318;28;8865;-78
2023/04/01 08:46:20;;;;;;;;;22.00;20.60;;;;;12.22;61.83;97818.47;4979890;28;8856;-71
2023/04/01 08:49:06;;;;;;;;;20.20;18.60;;;;;12.30;61.99;97814.47;4968039;28;8880;-73
2023/04/01 08:52:11;;;;;;;;;22.00;19.80;;;;;12.62;61.25;97813.59;5063176;28;9067;-73
2023/04/01 08:55:25;;;;;;;;;19.00;19.00;;;;;12.65;61.29;97808.13;4927429;28;8873;-73
2023/04/01 08:58:33;;;;;;;;;30.20;25.20;;;;;13.01;60.16;97814.88;4953210;28;8942;-78
2023/04/01 09:01:27;;;;;;;;;26.00;21.60;;;;;12.96;59.86;97803.75;4899520;29;8892;-79
2023/04/01 09:04:34;;;;;;;;;25.40;23.20;;;;;12.90;59.82;97797.91;4943586;28;8932;-77
2023/04/01 09:07:22;;;;;;;;;24.60;24.60;;;;;12.88;60.10;97802.44;4854726;29;8901;-79
2023/04/01 09:10:22;;;;;;;;;29.80;28.20;;;;;13.08;59.64;97798.59;4855726;29;9002;-79
2023/04/01 09:13:22;;;;;;;;;23.60;23.60;;;;;13.41;58.34;97794.03;4837388;29;9687;-80
2023/04/01 09:16:27;;;;;;;;;30.25;28.50;;;;;13.51;58.39;97801.31;4804313;29;8920;-72
2023/04/01 09:19:20;;;;;;;;;31.00;28.80;;;;;13.70;57.18;97797.53;4797897;29;8900;-72
2023/04/01 09:22:10;;;;;;;;;25.00;23.40;;;;;13.75;56.40;97799.88;4757621;29;8887;-82
2023/04/01 09:25:03;;;;;;;;;34.75;33.00;;;;;14.02;56.64;97800.00;4800234;29;8972;-80
2023/04/01 09:27:37;;;;;;;;;40.75;36.00;;;;;14.06;56.66;97794.41;4783087;29;8906;-75
2023/04/01 09:30:51;;;;;;;;;38.00;35.50;;;;;14.36;56.08;97795.22;4782711;29;9028;-80
2023/04/01 09:33:58;;;;;;;;;37.25;34.75;;;;;14.47;55.12;97790.91;4825510;29;8922;-78
2023/04/01 09:36:46;;;;;;;;;41.00;36.75;;;;;14.32;55.10;97791.03;4832319;29;8864;-76
2023/04/01 09:39:46;;;;;;;;;40.75;37.50;;;;;14.46;54.85;97793.66;4832766;29;8900;-81
2023/04/01 09:42:42;;;;;;;;;38.75;35.00;;;;;14.41;54.64;97791.31;4792596;29;8986;-76
2023/04/01 09:45:35;;;;;;;;;38.00;35.50;;;;;14.45;54.47;97790.16;4849120;29;8870;-72
2023/04/01 09:48:20;;;;;;;;;41.00;34.75;;;;;14.47;54.44;97782.16;4872680;29;8910;-73
2023/04/01 09:51:02;;;;;;;;;45.50;36.25;;;;;14.52;54.40;97782.69;4882603;29;8958;-74
2023/04/01 09:53:56;;;;;;;;;48.25;39.25;;;;;14.52;54.27;97787.97;4834949;29;8897;-74
2023/04/01 09:57:10;;;;;;;;;42.00;36.50;;;;;12.79;59.79;97800.28;4835744;29;8896;-76
2023/04/01 10:00:17;;;;;;;;;25.60;22.20;;;;;11.33;64.87;97811.75;4847373;29;8885;-74
2023/04/01 10:03:25;;;;;;;;;11.60;11.40;;;;;10.53;66.22;97814.88;4816531;29;8866;-72
2023/04/01 10:06:26;;;;;;;;;10.40;8.20;;;;;10.43;66.83;97792.59;4801994;29;8997;-75
2023/04/01 10:09:36;;;;;;;;;8.60;7.60;;;;;10.40;67.08;97812.81;4811140;29;9620;-72
2023/04/01 10:12:37;;;;;;;;;9.80;8.40;;;;;10.18;68.13;97807.75;4876818;29;8876;-71
2023/04/01 10:15:51;;;;;;;;;13.00;10.40;;;;;10.07;68.27;97822.31;4889388;29;8878;-74
2023/04/01 10:18:57;;;;;;;;;13.20;13.20;;;;;10.02;68.75;97812.00;4870173;29;8893;-77
2023/04/01 10:22:01;;;;;;;;;8.40;8.20;;;;;9.81;69.57;97812.06;4882102;28;8898;-72
2023/04/01 10:25:12;;;;;;;;;8.80;8.40;;;;;9.70;69.85;97830.06;4927708;28;8860;-73
2023/04/01 10:27:59;;;;;;;;;7.20;7.00;;;;;9.76;69.83;97835.06;4868913;29;8885;-72
2023/04/01 10:31:29;;;;;;;;;12.20;10.00;;;;;9.57;69.17;97842.91;4841688;29;8903;-72
2023/04/01 10:34:32;;;;;;;;;8.60;7.60;;;;;9.52;69.68;97841.38;4836714;29;8894;-71
2023/04/01 10:37:18;;;;;;;;;8.40;8.40;;;;;9.63;69.12;97849.66;4867217;29;8862;-71
2023/04/01 10:40:29;;;;;;;;;12.00;12.00;;;;;9.30;70.77;97857.19;4853918;29;8863;-72
2023/04/01 10:43:54;;;;;;;;;8.80;8.20;;;;;8.94;71.65;97839.47;4818728;29;8879;-73
2023/04/01 10:46:51;;;;;;;;;12.20;12.20;;;;;9.26;70.56;97847.75;4815294;29;8877;-72
2023/04/01 10:53:31;;;;;;;;;13.40;12.00;;;;;9.42;70.36;97872.38;4792871;29;8914;-72
2023/04/01 10:56:34;;;;;;;;;12.20;12.20;;;;;9.35;70.29;97876.19;4795221;29;8900;-72
2023/04/01 11:00:00;;;;;;;;;15.20;14.80;;;;;9.61;70.22;97886.44;4796708;29;8934;-72
2023/04/01 11:03:43;;;;;;;;;14.40;13.00;;;;;9.46;69.54;97888.84;4849280;29;9026;-71
2023/04/01 11:07:18;;;;;;;;;12.00;10.40;;;;;9.50;70.53;97888.66;4869491;29;9008;-73
2023/04/01 11:10:24;;;;;;;;;6.80;6.80;;;;;8.31;74.80;97915.28;4854469;29;8973;-72
2023/04/01 11:13:31;;;;;;;;;3.20;3.20;;;;;8.11;74.11;97916.88;4838805;29;8865;-73
2023/04/01 11:16:34;;;;;;;;;6.60;6.60;;;;;8.24;74.97;97927.75;4869748;29;8981;-71
2023/04/01 11:19:33;;;;;;;;;6.80;6.00;;;;;8.11;76.29;97937.81;4879363;29;8873;-74
2023/04/01 11:22:31;;;;;;;;;5.60;4.20;;;;;8.17;76.80;97942.81;4908215;29;8970;-75
2023/04/01 11:25:22;;;;;;;;;5.20;5.20;;;;;7.93;77.34;97951.56;4836813;29;8896;-75
2023/04/01 11:28:42;;;;;;;;;3.00;3.00;;;;;7.86;76.98;97961.41;4811641;29;8973;-76
2023/04/01 11:31:27;;;;;;;;;5.40;5.00;;;;;7.37;80.08;97968.31;4767482;29;9001;-75
2023/04/01 11:34:11;;;;;;;;;5.00;5.00;;;;;7.20;82.46;97963.63;4810229;29;8888;-74
2023/04/01 11:36:52;;;;;;;;;5.60;5.00;;;;;6.85;84.52;97978.63;4816437;29;8896;-78
2023/04/01 11:39:38;;;;;;;;;7.00;5.40;;;;;6.82;84.98;97986.56;4828495;29;8879;-76
2023/04/01 11:42:36;;;;;;;;;5.00;5.00;;;;;6.61;86.31;97977.66;4892289;29;8879;-80
2023/04/01 11:45:37;;;;;;;;;5.00;5.00;;;;;6.37;86.53;98011.38;4946772;29;8991;-77
2023/04/01 11:48:44;;;;;;;;;7.20;7.20;;;;;6.04;88.99;98002.72;4931968;29;9056;-78
2023/04/01 11:51:44;;;;;;;;;8.80;6.00;;;;;6.20;89.21;98004.03;4896045;29;8897;-80
2023/04/01 11:54:27;;;;;;;;;10.40;9.00;;;;;6.12;90.35;98012.06;4855992;29;8886;-79
2023/04/01 11:57:14;;;;;;;;;8.60;8.60;;;;;6.13;91.75;98028.56;4869290;29;8917;-78
2023/04/01 12:00:03;;;;;;;;;10.80;8.20;;;;;6.04;91.96;98039.25;4876035;29;8949;-79
2023/04/01 12:02:56;;;;;;;;;10.80;10.40;;;;;6.11;91.37;98044.28;4880844;29;9028;-78
2023/04/01 12:05:44;;;;;;;;;10.40;10.40;;;;;5.90;93.33;98060.47;4938115;28;8884;-77
2023/04/01 12:08:29;;;;;;;;;9.40;7.00;;;;;6.12;91.50;98058.19;4971729;28;10050;-78
2023/04/01 12:11:06;;;;;;;;;12.00;11.80;;;;;6.12;92.02;98072.06;4939790;28;8861;-79
2023/04/01 12:13:44;;;;;;;;;10.00;10.00;;;;;5.84;93.28;98076.28;4988160;28;9611;-80
2023/04/01 12:16:31;;;;;;;;;9.80;8.60;;;;;5.76;94.13;98075.66;4986812;28;8860;-76
2023/04/01 12:19:10;;;;;;;;;15.40;15.00;;;;;6.05;93.61;98077.50;4965620;28;8988;-78
2023/04/01 12:21:44;;;;;;;;;10.20;8.60;;;;;5.79;94.35;98083.38;4980894;28;9759;-77
2023/04/01 12:24:45;;;;;;;;;15.40;15.40;;;;;5.92;93.85;98103.88;5004149;28;8840;-80
2023/04/01 12:27:26;;;;;;;;;18.80;18.80;;;;;6.03;93.95;98090.56;5004237;28;8891;-77
2023/04/01 12:30:11;;;;;;;;;13.00;12.60;;;;;6.01;94.33;98088.91;5003675;28;8884;-78
2023/04/01 12:32:48;;;;;;;;;10.80;9.40;;;;;6.03;93.73;98089.72;5050320;28;8868;-78
2023/04/01 12:35:25;;;;;;;;;18.60;14.60;;;;;6.15;93.34;98104.19;5032530;28;8833;-79
2023/04/01 12:38:15;;;;;;;;;8.60;8.60;;;;;6.05;93.85;98101.81;5071093;28;8868;-79
2023/04/01 12:40:58;;;;;;;;;13.20;12.20;;;;;6.56;90.96;98092.63;5088528;28;8932;-78
2023/04/01 12:43:46;;;;;;;;;14.40;10.60;;;;;6.47;91.15;98112.03;5088926;28;8932;-76